Time;durP1;ratioP1;P1;durP2;ratioP2;P2;SDS_P1;SDS_P2;PMS_P1;PMS_P2;Temp;Humidity;BMP_temperature;BMP_pressure;BME280_temperature;BME280_humidity;BME280_pressure;Samples;Min_cycle;Max_cycle;Signal;HPM_P1;HPM_P2
2023/06/12 00:00:41;;;;;;;4.30;2.40;;;;;;;;;;5032816;28;20095;-75
2023/06/12 00:03:07;;;;;;;5.32;2.40;;;;;;;;;;5050520;28;20056;-75
2023/06/12 00:05:33;;;;;;;4.78;2.72;;;;;;;;;;5051146;28;20032;-74
2023/06/12 00:08:00;;;;;;;4.45;2.67;;;;;;;;;;5051090;28;20590;-74
2023/06/12 00:10:26;;;;;;;4.45;2.90;;;;;;;;;;5051267;28;20017;-75
2023/06/12 00:12:53;;;;;;;4.45;2.47;;;;;;;;;;5049786;28;20136;-74
2023/06/12 00:15:19;;;;;;;4.85;2.95;;;;;;;;;;5050409;28;20143;-74
2023/06/12 00:17:45;;;;;;;5.28;3.30;;;;;;;;;;5043107;28;20034;-74
2023/06/12 00:20:11;;;;;;;5.35;2.90;;;;;;;;;;5045279;28;20494;-75
2023/06/12 00:22:40;;;;;;;5.68;2.70;;;;;;;;;;5045967;28;20028;-75
2023/06/12 00:25:09;;;;;;;4.43;2.50;;;;;;;;;;5050646;28;20045;-72
2023/06/12 00:27:35;;;;;;;4.55;2.78;;;;;;;;;;5033690;28;20035;-74
2023/06/12 00:30:01;;;;;;;4.32;2.60;;;;;;;;;;5032800;28;20029;-74
2023/06/12 00:32:27;;;;;;;5.05;2.80;;;;;;;;;;5043543;28;20079;-74
2023/06/12 00:34:53;;;;;;;5.60;3.03;;;;;;;;;;5049735;28;20028;-73
2023/06/12 00:37:19;;;;;;;6.13;3.10;;;;;;;;;;5050884;28;20055;-73
2023/06/12 00:39:45;;;;;;;5.13;2.67;;;;;;;;;;5049437;28;20037;-74
2023/06/12 00:42:11;;;;;;;5.10;2.80;;;;;;;;;;5039009;28;20091;-74
2023/06/12 00:44:37;;;;;;;4.97;2.55;;;;;;;;;;5048553;28;20024;-74
2023/06/12 00:47:04;;;;;;;4.47;2.67;;;;;;;;;;5044773;28;20032;-75
2023/06/12 00:49:30;;;;;;;5.35;2.33;;;;;;;;;;5048853;28;20636;-73
2023/06/12 00:51:56;;;;;;;6.65;2.60;;;;;;;;;;5048074;28;20040;-73
2023/06/12 00:54:22;;;;;;;6.10;2.90;;;;;;;;;;5048865;28;20025;-74
2023/06/12 00:56:49;;;;;;;6.40;2.83;;;;;;;;;;5048864;28;20025;-75
2023/06/12 00:59:16;;;;;;;4.55;2.72;;;;;;;;;;5048276;28;20087;-74
2023/06/12 01:01:43;;;;;;;4.38;2.85;;;;;;;;;;5048032;28;20044;-73
2023/06/12 01:04:09;;;;;;;4.65;2.80;;;;;;;;;;5049100;28;20511;-73
2023/06/12 01:06:45;;;;;;;6.68;2.85;;;;;;;;;;5049085;28;20074;-74
2023/06/12 01:09:18;;;;;;;4.35;2.58;;;;;;;;;;5048972;28;20094;-74
2023/06/12 01:11:44;;;;;;;4.43;2.72;;;;;;;;;;5049136;28;20025;-74
2023/06/12 01:14:15;;;;;;;5.43;3.58;;;;;;;;;;5048824;28;20029;-74
2023/06/12 01:16:41;;;;;;;5.47;2.90;;;;;;;;;;5046766;28;20033;-74
2023/06/12 01:19:07;;;;;;;4.22;2.40;;;;;;;;;;5047888;28;20036;-74
2023/06/12 01:21:35;;;;;;;5.65;2.92;;;;;;;;;;5046572;28;20032;-74
2023/06/12 01:24:11;;;;;;;4.32;2.40;;;;;;;;;;5048431;28;20482;-73
2023/06/12 01:26:37;;;;;;;4.47;2.60;;;;;;;;;;5044710;28;20033;-74
2023/06/12 01:29:21;;;;;;;4.97;2.83;;;;;;;;;;5038014;28;20193;-74
2023/06/12 01:31:56;;;;;;;6.20;3.00;;;;;;;;;;5048297;28;20044;-74
2023/06/12 01:34:26;;;;;;;5.18;2.90;;;;;;;;;;5048295;28;20075;-73
2023/06/12 01:37:06;;;;;;;4.95;3.03;;;;;;;;;;5048186;28;20054;-74
2023/06/12 01:39:36;;;;;;;6.32;2.70;;;;;;;;;;5044708;28;20045;-74
2023/06/12 01:42:03;;;;;;;4.38;2.08;;;;;;;;;;5048169;28;20053;-74
2023/06/12 01:44:29;;;;;;;4.80;2.53;;;;;;;;;;5048058;28;20021;-74
2023/06/12 01:46:55;;;;;;;6.03;3.20;;;;;;;;;;5048134;28;20065;-73
2023/06/12 01:49:21;;;;;;;6.32;3.05;;;;;;;;;;5047581;28;20025;-74
2023/06/12 01:51:47;;;;;;;4.28;2.50;;;;;;;;;;5050155;28;20025;-74
2023/06/12 01:54:13;;;;;;;3.92;2.38;;;;;;;;;;5052363;28;20048;-74
2023/06/12 01:56:39;;;;;;;4.88;2.70;;;;;;;;;;5052207;28;20029;-73
2023/06/12 01:59:05;;;;;;;5.35;3.00;;;;;;;;;;5051992;28;20025;-73
2023/06/12 02:01:33;;;;;;;10.07;3.08;;;;;;;;;;5052220;28;20039;-75
2023/06/12 02:03:59;;;;;;;4.72;2.97;;;;;;;;;;5049256;28;20060;-73
2023/06/12 02:06:25;;;;;;;5.72;3.10;;;;;;;;;;5052427;28;20029;-73
2023/06/12 02:08:52;;;;;;;4.78;2.75;;;;;;;;;;5051845;28;20025;-73
2023/06/12 02:11:18;;;;;;;6.38;3.05;;;;;;;;;;5052120;28;20028;-74
2023/06/12 02:13:44;;;;;;;5.25;2.80;;;;;;;;;;5051932;28;20382;-73
2023/06/12 02:16:10;;;;;;;4.47;2.85;;;;;;;;;;5052342;28;20033;-74
2023/06/12 02:18:36;;;;;;;5.55;2.70;;;;;;;;;;5052171;28;20047;-74
2023/06/12 02:21:02;;;;;;;4.40;2.75;;;;;;;;;;5051489;28;20017;-74
2023/06/12 02:23:28;;;;;;;5.03;2.55;;;;;;;;;;5037026;28;20402;-73
2023/06/12 02:25:54;;;;;;;4.95;2.97;;;;;;;;;;5051895;28;20025;-73
2023/06/12 02:28:20;;;;;;;6.72;2.97;;;;;;;;;;5048929;28;20024;-74
2023/06/12 02:30:46;;;;;;;4.03;2.22;;;;;;;;;;5050436;28;20041;-74
2023/06/12 02:33:12;;;;;;;6.03;2.42;;;;;;;;;;5052012;28;20025;-73
2023/06/12 02:35:42;;;;;;;5.00;2.58;;;;;;;;;;5052253;28;20025;-74
2023/06/12 02:38:08;;;;;;;5.03;2.83;;;;;;;;;;5052380;28;20029;-74
2023/06/12 02:40:34;;;;;;;5.25;2.63;;;;;;;;;;5050048;28;20112;-75
2023/06/12 02:43:00;;;;;;;3.65;2.20;;;;;;;;;;5051490;28;20032;-75
2023/06/12 02:45:26;;;;;;;5.50;2.55;;;;;;;;;;5051582;28;20063;-74
2023/06/12 02:47:52;;;;;;;4.15;2.40;;;;;;;;;;5050977;28;20033;-74
2023/06/12 02:50:18;;;;;;;5.18;2.50;;;;;;;;;;5051367;28;20545;-74
2023/06/12 02:52:45;;;;;;;4.25;2.47;;;;;;;;;;5050231;28;20036;-73
2023/06/12 02:55:11;;;;;;;5.75;2.78;;;;;;;;;;5051684;28;20017;-74
2023/06/12 02:57:37;;;;;;;4.88;2.63;;;;;;;;;;5049560;28;20029;-74
2023/06/12 03:00:03;;;;;;;4.38;2.55;;;;;;;;;;5049035;28;20044;-74
2023/06/12 03:02:29;;;;;;;4.82;2.45;;;;;;;;;;5050850;28;20021;-74
2023/06/12 03:04:55;;;;;;;4.30;2.65;;;;;;;;;;5051101;28;20433;-74
2023/06/12 03:07:23;;;;;;;4.05;2.47;;;;;;;;;;5050833;28;20033;-74
2023/06/12 03:09:49;;;;;;;4.32;2.38;;;;;;;;;;5032885;28;20025;-74
2023/06/12 03:12:15;;;;;;;4.38;2.65;;;;;;;;;;5051310;28;20439;-74
2023/06/12 03:14:42;;;;;;;4.18;2.50;;;;;;;;;;5047057;28;20051;-74
2023/06/12 03:17:09;;;;;;;4.32;2.40;;;;;;;;;;5050661;28;20521;-74
2023/06/12 03:19:35;;;;;;;3.85;2.30;;;;;;;;;;5051008;28;20029;-74
2023/06/12 03:22:01;;;;;;;5.93;2.47;;;;;;;;;;5050365;28;20032;-74
2023/06/12 03:24:29;;;;;;;3.92;2.25;;;;;;;;;;5051176;28;20045;-73
2023/06/12 03:26:55;;;;;;;4.80;2.80;;;;;;;;;;5050042;28;20120;-74
2023/06/12 03:29:21;;;;;;;4.32;2.53;;;;;;;;;;5050774;28;20024;-73
2023/06/12 03:31:47;;;;;;;3.97;2.40;;;;;;;;;;5050538;28;20028;-74
2023/06/12 03:34:15;;;;;;;5.05;2.63;;;;;;;;;;5050893;28;20072;-74
2023/06/12 03:36:43;;;;;;;5.32;2.70;;;;;;;;;;5050245;28;20429;-75
2023/06/12 03:39:09;;;;;;;5.35;2.40;;;;;;;;;;5050867;28;20052;-75
2023/06/12 03:41:35;;;;;;;5.30;2.55;;;;;;;;;;5050870;28;20083;-75
2023/06/12 03:44:01;;;;;;;7.03;2.45;;;;;;;;;;5050669;28;20032;-74
2023/06/12 03:46:32;;;;;;;6.70;3.00;;;;;;;;;;5051744;28;20025;-75
2023/06/12 03:48:59;;;;;;;5.38;2.50;;;;;;;;;;5051762;28;20021;-74
2023/06/12 03:51:26;;;;;;;6.10;2.75;;;;;;;;;;5050297;28;20052;-74
2023/06/12 03:53:52;;;;;;;4.97;2.28;;;;;;;;;;5048369;28;20032;-74
2023/06/12 03:56:18;;;;;;;4.22;2.40;;;;;;;;;;5051784;28;20056;-74
2023/06/12 03:58:44;;;;;;;4.85;2.65;;;;;;;;;;5050632;28;20044;-74
2023/06/12 04:01:10;;;;;;;4.43;2.55;;;;;;;;;;5049332;28;20032;-74
2023/06/12 04:03:38;;;;;;;4.00;2.40;;;;;;;;;;5050182;28;20369;-73
2023/06/12 04:06:04;;;;;;;4.68;2.40;;;;;;;;;;5050516;28;20482;-73
2023/06/12 04:08:30;;;;;;;4.28;2.35;;;;;;;;;;5043282;28;20417;-73
2023/06/12 04:10:56;;;;;;;5.80;3.35;;;;;;;;;;5049652;28;20025;-75
2023/06/12 04:13:22;;;;;;;6.07;2.83;;;;;;;;;;5048045;28;20418;-75
2023/06/12 04:15:48;;;;;;;7.95;3.80;;;;;;;;;;5048917;28;20029;-75
2023/06/12 04:18:14;;;;;;;6.05;2.90;;;;;;;;;;5049633;28;20028;-75
2023/06/12 04:20:41;;;;;;;5.57;3.28;;;;;;;;;;5050026;28;20033;-76
2023/06/12 04:23:11;;;;;;;6.10;3.28;;;;;;;;;;5046614;28;20021;-76
2023/06/12 04:25:37;;;;;;;5.22;3.10;;;;;;;;;;5049982;28;20029;-76
2023/06/12 04:28:03;;;;;;;6.38;3.58;;;;;;;;;;5049229;28;20114;-77
2023/06/12 04:30:33;;;;;;;6.50;3.05;;;;;;;;;;5049630;28;20020;-76
2023/06/12 04:32:59;;;;;;;5.88;3.17;;;;;;;;;;5034980;28;20693;-75
2023/06/12 04:35:25;;;;;;;5.35;3.35;;;;;;;;;;5049202;28;20021;-77
2023/06/12 04:37:52;;;;;;;5.50;2.97;;;;;;;;;;5047934;28;20041;-76
2023/06/12 04:40:20;;;;;;;7.82;3.67;;;;;;;;;;5031668;28;20083;-77
2023/06/12 04:42:46;;;;;;;5.43;3.38;;;;;;;;;;5044472;28;20501;-76
2023/06/12 04:45:13;;;;;;;6.97;3.38;;;;;;;;;;5049184;28;20090;-77
2023/06/12 04:47:42;;;;;;;6.55;3.40;;;;;;;;;;5047420;28;20487;-76
2023/06/12 04:50:10;;;;;;;5.72;2.58;;;;;;;;;;5049179;28;20052;-76
2023/06/12 04:52:36;;;;;;;8.77;4.20;;;;;;;;;;5044990;28;20020;-77
2023/06/12 04:55:02;;;;;;;6.20;3.55;;;;;;;;;;5049209;28;20487;-76
2023/06/12 04:57:29;;;;;;;8.30;4.28;;;;;;;;;;5049027;28;20064;-76
2023/06/12 04:59:55;;;;;;;5.22;2.92;;;;;;;;;;5048650;28;20149;-75
2023/06/12 05:02:21;;;;;;;6.50;3.35;;;;;;;;;;5048517;28;20100;-76
2023/06/12 05:04:47;;;;;;;6.07;3.00;;;;;;;;;;5049065;28;20029;-76
2023/06/12 05:07:14;;;;;;;5.95;3.20;;;;;;;;;;5049392;28;20033;-76
2023/06/12 05:09:46;;;;;;;7.78;3.70;;;;;;;;;;5048970;28;20032;-75
2023/06/12 05:12:12;;;;;;;7.38;3.67;;;;;;;;;;5048601;28;20028;-76
2023/06/12 05:14:39;;;;;;;6.95;3.25;;;;;;;;;;5035891;28;20028;-76
2023/06/12 05:17:06;;;;;;;6.30;3.25;;;;;;;;;;5046796;28;20063;-76
2023/06/12 05:19:32;;;;;;;6.68;3.35;;;;;;;;;;5046650;28;20036;-76
2023/06/12 05:21:58;;;;;;;8.30;3.58;;;;;;;;;;5047897;28;20025;-77
2023/06/12 05:24:24;;;;;;;6.93;3.35;;;;;;;;;;5048285;28;20610;-76
2023/06/12 05:26:50;;;;;;;7.90;3.00;;;;;;;;;;5048566;28;20033;-76
2023/06/12 05:29:17;;;;;;;6.50;3.55;;;;;;;;;;5048832;28;20033;-77
2023/06/12 05:31:43;;;;;;;7.35;3.60;;;;;;;;;;5048471;28;20069;-76
2023/06/12 05:34:09;;;;;;;8.02;3.28;;;;;;;;;;5048129;28;20507;-75
2023/06/12 05:36:36;;;;;;;6.63;3.65;;;;;;;;;;5048274;28;20028;-75
2023/06/12 05:39:02;;;;;;;6.53;3.50;;;;;;;;;;5048224;28;20473;-76
2023/06/12 05:41:29;;;;;;;9.27;4.00;;;;;;;;;;5047849;28;20041;-75
2023/06/12 05:43:54;;;;;;;5.90;3.47;;;;;;;;;;5037222;28;20032;-76
2023/06/12 05:46:20;;;;;;;6.07;3.28;;;;;;;;;;5047751;28;20029;-77
2023/06/12 05:48:46;;;;;;;7.70;3.70;;;;;;;;;;5044954;28;20099;-76
2023/06/12 05:51:13;;;;;;;7.38;3.17;;;;;;;;;;5048174;28;20126;-77
2023/06/12 05:53:39;;;;;;;6.60;3.05;;;;;;;;;;5048213;28;20137;-77
2023/06/12 05:56:05;;;;;;;6.60;3.38;;;;;;;;;;5048375;28;20108;-77
2023/06/12 05:58:31;;;;;;;7.43;4.07;;;;;;;;;;5048543;28;20036;-77
2023/06/12 06:01:00;;;;;;;7.30;4.10;;;;;;;;;;5048584;28;20048;-78
2023/06/12 06:03:26;;;;;;;7.53;4.20;;;;;;;;;;5037292;28;20060;-77
2023/06/12 06:05:52;;;;;;;7.72;3.83;;;;;;;;;;5034548;28;20501;-77
2023/06/12 06:08:18;;;;;;;8.52;4.47;;;;;;;;;;5048111;28;20437;-78
2023/06/12 06:10:44;;;;;;;7.65;3.40;;;;;;;;;;5045107;28;20029;-77
2023/06/12 06:13:10;;;;;;;9.02;5.00;;;;;;;;;;5040459;28;20108;-77
2023/06/12 06:15:37;;;;;;;6.72;3.95;;;;;;;;;;5047906;28;20108;-77
2023/06/12 06:18:03;;;;;;;9.77;4.50;;;;;;;;;;5046543;28;20233;-78
2023/06/12 06:20:29;;;;;;;8.30;3.92;;;;;;;;;;5046955;28;20494;-78
2023/06/12 06:22:55;;;;;;;8.02;4.30;;;;;;;;;;5047744;28;20048;-76
2023/06/12 06:25:22;;;;;;;9.77;5.30;;;;;;;;;;5045437;28;20056;-78
2023/06/12 06:27:48;;;;;;;6.13;3.25;;;;;;;;;;5035970;28;20372;-77
2023/06/12 06:30:15;;;;;;;8.55;4.07;;;;;;;;;;5047201;28;20463;-79
2023/06/12 06:32:41;;;;;;;7.28;3.60;;;;;;;;;;5047814;28;20115;-77
2023/06/12 06:35:07;;;;;;;7.93;3.53;;;;;;;;;;5047426;28;20032;-77
2023/06/12 06:37:33;;;;;;;9.48;4.00;;;;;;;;;;5043373;28;20492;-78
2023/06/12 06:39:59;;;;;;;10.68;4.47;;;;;;;;;;5048667;28;20033;-80
2023/06/12 06:42:29;;;;;;;7.07;4.10;;;;;;;;;;5051518;28;20486;-78
2023/06/12 06:44:55;;;;;;;;;;;;;;;;;;5050789;28;20489;-77
2023/06/12 06:47:21;;;;;;;8.70;4.40;;;;;;;;;;5050035;28;19999;-78
2023/06/12 06:49:47;;;;;;;8.57;3.65;;;;;;;;;;5049704;28;20049;-78
2023/06/12 06:52:17;;;;;;;7.00;3.67;;;;;;;;;;5049809;28;20028;-78
2023/06/12 06:54:44;;;;;;;7.18;3.28;;;;;;;;;;5050809;28;20111;-76
2023/06/12 06:57:11;;;;;;;8.23;4.50;;;;;;;;;;5049823;28;20029;-79
2023/06/12 06:59:37;;;;;;;8.30;4.30;;;;;;;;;;5050234;28;20037;-76
2023/06/12 07:02:03;;;;;;;8.20;4.15;;;;;;;;;;5050086;28;20064;-76
2023/06/12 07:04:29;;;;;;;11.30;4.28;;;;;;;;;;5030823;28;20116;-77
2023/06/12 07:06:55;;;;;;;7.10;3.45;;;;;;;;;;5044437;28;20075;-79
2023/06/12 07:09:24;;;;;;;7.60;4.20;;;;;;;;;;5050543;28;20025;-79
2023/06/12 07:11:51;;;;;;;7.75;3.58;;;;;;;;;;5050637;28;20059;-76
2023/06/12 07:14:18;;;;;;;10.63;4.35;;;;;;;;;;5050418;28;20594;-79
2023/06/12 07:16:44;;;;;;;6.45;4.20;;;;;;;;;;5051405;28;20067;-77
2023/06/12 07:19:10;;;;;;;6.10;3.90;;;;;;;;;;5050243;28;20091;-78
2023/06/12 07:21:37;;;;;;;6.72;3.08;;;;;;;;;;5051069;28;20029;-79
2023/06/12 07:24:03;;;;;;;8.32;3.95;;;;;;;;;;5051048;28;20465;-79
2023/06/12 07:26:29;;;;;;;6.00;3.72;;;;;;;;;;5049288;28;20056;-78
2023/06/12 07:28:56;;;;;;;9.35;4.47;;;;;;;;;;5048458;28;20033;-78
2023/06/12 07:31:22;;;;;;;8.60;4.95;;;;;;;;;;5049617;28;20035;-78
2023/06/12 07:33:51;;;;;;;6.10;3.95;;;;;;;;;;5048554;28;20025;-78
2023/06/12 07:36:17;;;;;;;6.97;4.43;;;;;;;;;;5048860;28;20045;-77
2023/06/12 07:38:43;;;;;;;8.02;3.92;;;;;;;;;;5048113;28;20052;-77
2023/06/12 07:41:09;;;;;;;7.55;3.92;;;;;;;;;;5047180;28;20047;-80
2023/06/12 07:43:35;;;;;;;8.40;4.05;;;;;;;;;;5047489;28;20055;-79
2023/06/12 07:46:01;;;;;;;6.45;4.20;;;;;;;;;;5048078;28;20045;-80
2023/06/12 07:48:28;;;;;;;7.20;3.85;;;;;;;;;;5046391;28;20483;-80
2023/06/12 07:50:54;;;;;;;9.48;4.30;;;;;;;;;;5048127;28;20897;-80
2023/06/12 07:53:20;;;;;;;8.27;4.28;;;;;;;;;;5048859;28;20025;-79
2023/06/12 07:55:47;;;;;;;6.90;3.20;;;;;;;;;;5049433;28;20036;-79
2023/06/12 07:58:13;;;;;;;6.30;3.80;;;;;;;;;;5050137;28;20028;-77
2023/06/12 08:00:39;;;;;;;6.70;3.78;;;;;;;;;;5049310;28;20040;-80
2023/06/12 08:03:05;;;;;;;8.07;4.43;;;;;;;;;;5049669;28;20032;-79
2023/06/12 08:05:31;;;;;;;5.80;3.92;;;;;;;;;;5050006;28;20147;-79
2023/06/12 08:07:58;;;;;;;7.50;4.05;;;;;;;;;;5035969;28;20029;-79
2023/06/12 08:10:24;;;;;;;8.30;4.05;;;;;;;;;;5050580;28;20052;-79
2023/06/12 08:12:50;;;;;;;7.38;4.80;;;;;;;;;;5050249;28;20071;-80
2023/06/12 08:15:16;;;;;;;7.35;4.82;;;;;;;;;;5036115;28;20511;-79
2023/06/12 08:17:42;;;;;;;6.25;4.28;;;;;;;;;;5049876;28;20463;-79
2023/06/12 08:20:10;;;;;;;7.88;3.92;;;;;;;;;;5049850;28;20102;-79
2023/06/12 08:22:39;;;;;;;6.65;4.22;;;;;;;;;;5048963;28;20106;-79
2023/06/12 08:25:06;;;;;;;9.20;3.87;;;;;;;;;;5049515;28;20052;-80
2023/06/12 08:27:33;;;;;;;8.75;4.38;;;;;;;;;;5049872;28;20033;-79
2023/06/12 08:29:59;;;;;;;7.38;4.07;;;;;;;;;;5051099;28;20063;-78
2023/06/12 08:32:25;;;;;;;8.15;4.13;;;;;;;;;;5040382;28;20033;-79
2023/06/12 08:34:51;;;;;;;8.15;4.07;;;;;;;;;;5052651;28;20063;-78
2023/06/12 08:37:21;;;;;;;7.60;3.55;;;;;;;;;;5054418;28;20033;-79
2023/06/12 08:39:47;;;;;;;4.88;3.22;;;;;;;;;;5055873;28;20410;-80
2023/06/12 08:42:18;;;;;;;6.18;4.05;;;;;;;;;;5053524;28;20645;-79
2023/06/12 08:44:45;;;;;;;8.23;4.55;;;;;;;;;;5052630;28;20025;-80
2023/06/12 08:47:11;;;;;;;7.82;5.20;;;;;;;;;;5052615;28;20032;-79
2023/06/12 08:49:38;;;;;;;5.88;3.92;;;;;;;;;;5034947;28;20110;-80
2023/06/12 08:52:06;;;;;;;5.82;3.92;;;;;;;;;;5053202;28;20033;-80
2023/06/12 08:54:36;;;;;;;6.45;3.80;;;;;;;;;;5051646;28;20043;-76
2023/06/12 08:57:03;;;;;;;6.57;4.07;;;;;;;;;;5052082;28;20066;-79
2023/06/12 08:59:29;;;;;;;7.53;4.53;;;;;;;;;;5055356;28;20029;-80
2023/06/12 09:01:56;;;;;;;8.13;4.53;;;;;;;;;;5055368;28;20039;-79
2023/06/12 09:04:37;;;;;;;6.57;3.85;;;;;;;;;;5052555;28;20111;-80
2023/06/12 09:07:03;;;;;;;7.10;4.20;;;;;;;;;;5052102;28;20191;-80
2023/06/12 09:09:37;;;;;;;6.70;4.43;;;;;;;;;;5050898;28;20029;-79
2023/06/12 09:12:03;;;;;;;7.40;3.92;;;;;;;;;;5034857;28;20576;-80
2023/06/12 09:14:34;;;;;;;6.82;4.70;;;;;;;;;;5052480;28;20386;-81
2023/06/12 09:17:00;;;;;;;5.85;3.92;;;;;;;;;;5051952;28;20033;-79
2023/06/12 09:19:26;;;;;;;6.32;4.60;;;;;;;;;;5048996;28;20079;-78
2023/06/12 09:21:52;;;;;;;6.13;4.15;;;;;;;;;;5047619;28;20052;-79
2023/06/12 09:24:21;;;;;;;6.60;4.47;;;;;;;;;;5048489;28;20163;-79
2023/06/12 09:26:47;;;;;;;7.13;4.68;;;;;;;;;;5049364;28;20037;-80
2023/06/12 09:29:13;;;;;;;10.20;4.25;;;;;;;;;;5048357;28;20112;-79
2023/06/12 09:31:41;;;;;;;5.53;4.18;;;;;;;;;;5046750;28;20074;-80
2023/06/12 09:34:07;;;;;;;5.22;3.35;;;;;;;;;;5050229;28;20406;-81
2023/06/12 09:36:35;;;;;;;6.65;4.20;;;;;;;;;;5049965;28;20098;-78
2023/06/12 09:39:02;;;;;;;5.85;3.88;;;;;;;;;;5048803;28;20047;-80
2023/06/12 09:41:29;;;;;;;7.65;4.47;;;;;;;;;;5049404;28;20044;-79
2023/06/12 09:44:04;;;;;;;7.35;4.32;;;;;;;;;;5049230;28;20025;-80
2023/06/12 09:46:32;;;;;;;6.75;4.43;;;;;;;;;;5047860;28;20097;-79
2023/06/12 09:48:58;;;;;;;7.45;4.60;;;;;;;;;;5046567;28;20414;-77
2023/06/12 09:51:24;;;;;;;6.00;3.95;;;;;;;;;;5047151;28;20053;-80
2023/06/12 09:53:51;;;;;;;6.20;3.78;;;;;;;;;;5046793;28;20061;-77
2023/06/12 09:56:17;;;;;;;7.53;3.47;;;;;;;;;;5047109;28;20807;-78
2023/06/12 09:58:47;;;;;;;7.32;3.67;;;;;;;;;;5047174;28;20021;-77
2023/06/12 10:01:14;;;;;;;6.57;3.58;;;;;;;;;;5046461;28;20044;-78
2023/06/12 10:03:44;;;;;;;7.70;3.95;;;;;;;;;;5038779;28;20036;-79
2023/06/12 10:06:13;;;;;;;5.60;3.45;;;;;;;;;;5048034;28;20056;-77
2023/06/12 10:08:40;;;;;;;6.55;3.50;;;;;;;;;;5029874;28;20024;-78
2023/06/12 10:11:10;;;;;;;6.60;3.50;;;;;;;;;;5048257;28;20021;-79
2023/06/12 10:13:36;;;;;;;8.23;3.75;;;;;;;;;;5039352;28;20091;-79
2023/06/12 10:16:02;;;;;;;5.75;3.83;;;;;;;;;;5051663;28;20037;-79
2023/06/12 10:18:29;;;;;;;6.38;3.80;;;;;;;;;;5051621;28;20653;-80
2023/06/12 10:20:55;;;;;;;6.03;3.80;;;;;;;;;;5051417;28;20036;-79
2023/06/12 10:23:22;;;;;;;5.55;3.72;;;;;;;;;;5050682;28;20044;-80
2023/06/12 10:25:49;;;;;;;6.30;3.35;;;;;;;;;;5052523;28;20486;-79
2023/06/12 10:28:16;;;;;;;6.07;3.50;;;;;;;;;;5051356;28;20442;-79
2023/06/12 10:31:01;;;;;;;4.55;3.28;;;;;;;;;;5051912;28;20021;-78
2023/06/12 10:33:27;;;;;;;5.43;3.67;;;;;;;;;;5054137;28;20107;-78
2023/06/12 10:35:53;;;;;;;5.53;3.45;;;;;;;;;;5050726;28;20154;-79
2023/06/12 10:38:20;;;;;;;5.57;3.38;;;;;;;;;;5051800;28;20124;-79
2023/06/12 10:40:50;;;;;;;7.63;3.80;;;;;;;;;;5051789;28;20530;-79
2023/06/12 10:43:21;;;;;;;5.13;3.67;;;;;;;;;;5035600;28;20025;-80
2023/06/12 10:45:56;;;;;;;4.82;3.42;;;;;;;;;;5050294;28;20025;-79
2023/06/12 10:48:23;;;;;;;6.22;4.10;;;;;;;;;;5051363;28;20029;-78
2023/06/12 10:50:51;;;;;;;6.25;4.10;;;;;;;;;;5049103;28;20049;-79
2023/06/12 10:53:24;;;;;;;8.63;4.28;;;;;;;;;;5049100;28;20039;-78
2023/06/12 10:55:55;;;;;;;5.30;3.53;;;;;;;;;;5048876;28;20098;-79
2023/06/12 10:58:21;;;;;;;4.82;3.10;;;;;;;;;;5048881;28;20536;-79
2023/06/12 11:00:51;;;;;;;6.10;3.58;;;;;;;;;;5048520;28;20037;-78
2023/06/12 11:03:21;;;;;;;6.00;4.15;;;;;;;;;;5047715;28;20036;-77
2023/06/12 11:05:49;;;;;;;7.82;3.55;;;;;;;;;;5048269;28;20106;-78
2023/06/12 11:08:15;;;;;;;5.57;4.30;;;;;;;;;;5048545;28;20040;-77
2023/06/12 11:10:42;;;;;;;6.15;4.05;;;;;;;;;;5049221;28;20033;-78
2023/06/12 11:13:08;;;;;;;7.32;3.88;;;;;;;;;;5027039;28;20149;-80
2023/06/12 11:15:44;;;;;;;6.13;3.95;;;;;;;;;;5045951;28;20106;-79
2023/06/12 11:18:11;;;;;;;5.72;3.90;;;;;;;;;;5047789;28;20101;-77
2023/06/12 11:20:38;;;;;;;6.10;3.60;;;;;;;;;;5048444;28;20064;-77
2023/06/12 11:23:05;;;;;;;6.80;3.78;;;;;;;;;;5047683;28;20037;-78
2023/06/12 11:25:35;;;;;;;6.78;4.60;;;;;;;;;;5047338;28;20033;-78
2023/06/12 11:28:02;;;;;;;5.93;4.60;;;;;;;;;;5046898;28;20032;-77
2023/06/12 11:30:28;;;;;;;8.05;4.72;;;;;;;;;;5046713;28;20033;-78
2023/06/12 11:32:54;;;;;;;6.57;4.00;;;;;;;;;;5045784;28;20112;-78
2023/06/12 11:35:20;;;;;;;7.03;4.45;;;;;;;;;;5045494;28;20129;-78
2023/06/12 11:37:47;;;;;;;5.75;4.55;;;;;;;;;;5046591;28;20595;-77
2023/06/12 11:40:13;;;;;;;9.05;4.00;;;;;;;;;;5046617;28;20041;-78
2023/06/12 11:42:41;;;;;;;6.80;3.40;;;;;;;;;;5047416;28;20650;-78
2023/06/12 11:45:08;;;;;;;6.90;4.60;;;;;;;;;;5048102;28;20552;-77
2023/06/12 11:47:38;;;;;;;7.80;3.78;;;;;;;;;;5048260;28;20033;-75
2023/06/12 11:50:05;;;;;;;6.55;4.68;;;;;;;;;;5012664;28;1046136;-78
2023/06/12 11:52:31;;;;;;;7.38;5.82;;;;;;;;;;5031981;28;20052;-77
2023/06/12 11:54:58;;;;;;;6.63;4.00;;;;;;;;;;5040018;28;20087;-77
2023/06/12 11:57:28;;;;;;;8.05;3.60;;;;;;;;;;5059179;28;20096;-79
2023/06/12 11:59:58;;;;;;;7.85;3.30;;;;;;;;;;5031171;28;20160;-79
2023/06/12 12:02:39;;;;;;;5.70;3.60;;;;;;;;;;5051347;28;20506;-78
2023/06/12 12:05:08;;;;;;;15.50;5.63;;;;;;;;;;5047303;28;20919;-77
2023/06/12 12:07:35;;;;;;;8.77;3.90;;;;;;;;;;5031051;28;20437;-78
2023/06/12 12:10:06;;;;;;;8.75;4.88;;;;;;;;;;5049791;28;20033;-77
2023/06/12 12:12:39;;;;;;;6.18;3.72;;;;;;;;;;5043147;28;20434;-79
2023/06/12 12:15:06;;;;;;;8.23;4.15;;;;;;;;;;5036347;28;20167;-79
2023/06/12 12:17:32;;;;;;;6.15;3.95;;;;;;;;;;5049152;28;20056;-78
2023/06/12 12:20:04;;;;;;;8.10;3.90;;;;;;;;;;5049398;28;20407;-78
2023/06/12 12:22:31;;;;;;;5.45;4.07;;;;;;;;;;5038344;28;20028;-78
2023/06/12 12:24:57;;;;;;;6.85;4.07;;;;;;;;;;5048401;28;20028;-77
2023/06/12 12:27:23;;;;;;;7.95;4.47;;;;;;;;;;5049806;28;20059;-78
2023/06/12 12:29:49;;;;;;;7.68;5.05;;;;;;;;;;5049336;28;20574;-77
2023/06/12 12:32:15;;;;;;;8.80;4.65;;;;;;;;;;5049563;28;20024;-78
2023/06/12 12:34:41;;;;;;;6.22;4.15;;;;;;;;;;5050248;28;20033;-78
2023/06/12 12:37:08;;;;;;;5.40;3.97;;;;;;;;;;5048421;28;20035;-78
2023/06/12 12:39:34;;;;;;;8.57;4.97;;;;;;;;;;5046787;28;20057;-77
2023/06/12 12:42:00;;;;;;;8.30;4.50;;;;;;;;;;5047516;28;20029;-81
2023/06/12 12:44:26;;;;;;;7.70;3.83;;;;;;;;;;5047640;28;20029;-77
2023/06/12 12:46:52;;;;;;;13.20;4.80;;;;;;;;;;5050265;28;20025;-77
2023/06/12 12:49:18;;;;;;;6.00;3.80;;;;;;;;;;5049043;28;20028;-76
2023/06/12 12:51:44;;;;;;;7.85;4.15;;;;;;;;;;5048235;28;20028;-78
2023/06/12 12:54:10;;;;;;;7.68;4.65;;;;;;;;;;5042803;28;20024;-79
2023/06/12 12:56:36;;;;;;;8.68;5.53;;;;;;;;;;5047859;28;20029;-77
2023/06/12 12:59:06;;;;;;;7.28;5.05;;;;;;;;;;5049888;28;20029;-77
2023/06/12 13:01:32;;;;;;;6.50;4.70;;;;;;;;;;5049784;28;20052;-78
2023/06/12 13:03:59;;;;;;;9.02;4.82;;;;;;;;;;5054904;28;20486;-77
2023/06/12 13:06:26;;;;;;;7.03;4.53;;;;;;;;;;5051729;28;20028;-79
2023/06/12 13:08:52;;;;;;;6.93;4.65;;;;;;;;;;5049028;28;20032;-78
2023/06/12 13:11:18;;;;;;;7.30;4.00;;;;;;;;;;5048673;28;20020;-79
2023/06/12 13:13:44;;;;;;;5.65;3.85;;;;;;;;;;5048231;28;20155;-78
2023/06/12 13:16:11;;;;;;;5.90;4.10;;;;;;;;;;5046687;28;20025;-78
2023/06/12 13:18:37;;;;;;;5.93;4.03;;;;;;;;;;5048734;28;20025;-79
2023/06/12 13:21:04;;;;;;;5.93;4.03;;;;;;;;;;5046666;28;20068;-78
2023/06/12 13:23:30;;;;;;;6.18;3.45;;;;;;;;;;5047528;28;20021;-78
2023/06/12 13:25:56;;;;;;;16.17;4.22;;;;;;;;;;5047449;28;20032;-79
2023/06/12 13:28:22;;;;;;;8.07;4.30;;;;;;;;;;5047145;28;20037;-79
2023/06/12 13:30:48;;;;;;;5.85;4.28;;;;;;;;;;5046679;28;20049;-79
2023/06/12 13:33:15;;;;;;;5.60;4.00;;;;;;;;;;5029277;28;20036;-78
2023/06/12 13:35:41;;;;;;;8.23;4.80;;;;;;;;;;5047010;28;20025;-79
2023/06/12 13:38:07;;;;;;;6.78;3.95;;;;;;;;;;5028769;28;20368;-78
2023/06/12 13:40:33;;;;;;;5.95;3.25;;;;;;;;;;5047162;28;20044;-78
2023/06/12 13:42:59;;;;;;;7.18;5.15;;;;;;;;;;5041528;28;20893;-77
2023/06/12 13:45:26;;;;;;;4.90;3.53;;;;;;;;;;5046960;28;20029;-77
2023/06/12 13:47:52;;;;;;;6.53;4.45;;;;;;;;;;5045962;28;20025;-77
2023/06/12 13:50:18;;;;;;;5.65;3.78;;;;;;;;;;5046703;28;20584;-78
2023/06/12 13:52:45;;;;;;;6.93;4.05;;;;;;;;;;5046716;28;20386;-78
2023/06/12 13:55:11;;;;;;;7.20;5.32;;;;;;;;;;5046100;28;20021;-78
2023/06/12 13:57:39;;;;;;;9.43;3.95;;;;;;;;;;5046785;28;20670;-77
2023/06/12 14:00:05;;;;;;;5.80;3.97;;;;;;;;;;5046543;28;20514;-78
2023/06/12 14:02:31;;;;;;;6.95;4.32;;;;;;;;;;5045497;28;20479;-78
2023/06/12 14:04:59;;;;;;;7.43;4.38;;;;;;;;;;5046479;28;20025;-78
2023/06/12 14:07:25;;;;;;;7.20;4.00;;;;;;;;;;5046764;28;20559;-77
2023/06/12 14:09:53;;;;;;;9.00;5.22;;;;;;;;;;5047224;28;20029;-76
2023/06/12 14:12:19;;;;;;;6.97;4.95;;;;;;;;;;5046155;28;20025;-77
2023/06/12 14:14:48;;;;;;;9.20;5.15;;;;;;;;;;5047335;28;20021;-77
2023/06/12 14:17:14;;;;;;;5.05;3.53;;;;;;;;;;5045938;28;20021;-77
2023/06/12 14:19:41;;;;;;;4.85;3.47;;;;;;;;;;5047407;28;20496;-77
2023/06/12 14:22:07;;;;;;;5.72;4.25;;;;;;;;;;5047547;28;20371;-77
2023/06/12 14:24:33;;;;;;;6.20;3.47;;;;;;;;;;5047086;28;20055;-77
2023/06/12 14:27:00;;;;;;;6.25;4.13;;;;;;;;;;5047195;28;20029;-77
2023/06/12 14:29:26;;;;;;;5.22;3.80;;;;;;;;;;5047376;28;20033;-76
2023/06/12 14:31:52;;;;;;;5.68;3.83;;;;;;;;;;5047296;28;20047;-77
2023/06/12 14:34:18;;;;;;;9.88;5.22;;;;;;;;;;5045207;28;20048;-77
2023/06/12 14:36:44;;;;;;;8.02;4.00;;;;;;;;;;5046544;28;20445;-79
2023/06/12 14:39:12;;;;;;;6.57;4.10;;;;;;;;;;5046559;28;20029;-78
2023/06/12 14:41:38;;;;;;;5.75;3.83;;;;;;;;;;5040869;28;20033;-78